GWPNS EGJJ-EGJB

Flight info

Callsign GWPNS
Flight time 0h 18m
Altitude 2000
Route DCT GUR DCT
Aircraft BN2P/L-SFG/C

Departure

Time 2026-04-26 20:47
Airport Jersey Airport (EGJJ)

Arrival

Time 2026-04-26 21:06
Airport Guernsey Airport (EGJB)
Time Latitude Longitude Altitude Speed Heading
2026-04-26 20:24 49.20493 -2.19846 280 ft 0 kts 103°
2026-04-26 20:31 49.20476 -2.19836 280 ft 7 kts 174°
2026-04-26 20:31 49.20430 -2.19867 280 ft 9 kts 259°
2026-04-26 20:31 49.20461 -2.19919 280 ft 9 kts 352°
2026-04-26 20:32 49.20513 -2.19966 280 ft 0 kts 297°
2026-04-26 20:32 49.20516 -2.19978 280 ft 7 kts 289°
2026-04-26 20:32 49.20539 -2.20070 280 ft 10 kts 310°
2026-04-26 20:32 49.20605 -2.20092 280 ft 12 kts 353°
2026-04-26 20:33 49.20641 -2.20099 280 ft 0 kts 353°
2026-04-26 20:34 49.20643 -2.20099 280 ft 3 kts 353°
2026-04-26 20:35 49.20675 -2.20104 280 ft 13 kts 353°
2026-04-26 20:35 49.20717 -2.20121 280 ft 11 kts 338°
2026-04-26 20:35 49.20751 -2.20111 279 ft 0 kts 75°
2026-04-26 20:36 49.20753 -2.20095 279 ft 9 kts 79°
2026-04-26 20:36 49.20772 -2.19856 281 ft 36 kts 82°
2026-04-26 20:36 49.20814 -2.19359 283 ft 56 kts 84°
2026-04-26 20:37 49.20857 -2.18871 280 ft 23 kts 82°
2026-04-26 20:37 49.20866 -2.18738 279 ft 6 kts 83°
2026-04-26 20:37 49.20872 -2.18673 279 ft 15 kts 84°
2026-04-26 20:37 49.20886 -2.18493 278 ft 0 kts 87°
2026-04-26 20:38 49.20865 -2.18396 278 ft 0 kts 141°
2026-04-26 20:38 49.20837 -2.18377 280 ft 0 kts 171°
2026-04-26 20:38 49.20799 -2.18384 280 ft 17 kts 206°
2026-04-26 20:38 49.20772 -2.18414 280 ft 7 kts 218°
2026-04-26 20:39 49.20735 -2.18490 280 ft 10 kts 258°
2026-04-26 20:39 49.20727 -2.18598 280 ft 11 kts 263°
2026-04-26 20:39 49.20714 -2.18769 280 ft 25 kts 262°
2026-04-26 20:39 49.20695 -2.18988 280 ft 20 kts 264°
2026-04-26 20:40 49.20681 -2.19220 280 ft 23 kts 282°
2026-04-26 20:40 49.20710 -2.19404 281 ft 20 kts 271°
2026-04-26 20:40 49.20694 -2.19572 281 ft 3 kts 258°
2026-04-26 20:40 49.20657 -2.19655 280 ft 5 kts 215°
2026-04-26 20:41 49.20616 -2.19718 280 ft 10 kts 255°
2026-04-26 20:41 49.20605 -2.19871 280 ft 12 kts 263°
2026-04-26 20:41 49.20595 -2.19915 280 ft 0 kts 232°
2026-04-26 20:41 49.20592 -2.19922 280 ft 7 kts 227°
2026-04-26 20:42 49.20534 -2.19934 280 ft 13 kts 202°
2026-04-26 20:42 49.20530 -2.20053 280 ft 9 kts 291°
2026-04-26 20:42 49.20609 -2.20094 280 ft 7 kts 354°
2026-04-26 20:42 49.20646 -2.20100 280 ft 0 kts 353°
2026-04-26 20:45 49.20654 -2.20102 280 ft 10 kts 353°
2026-04-26 20:45 49.20706 -2.20111 280 ft 7 kts 349°
2026-04-26 20:46 49.20754 -2.20093 279 ft 0 kts 82°
2026-04-26 20:46 49.20755 -2.20088 279 ft 0 kts 83°
2026-04-26 20:46 49.20760 -2.20018 280 ft 29 kts 83°
2026-04-26 20:46 49.20813 -2.19406 313 ft 81 kts 82°
2026-04-26 20:47 49.20889 -2.18429 480 ft 104 kts 81°
2026-04-26 20:47 49.20954 -2.17651 604 ft 113 kts 82°
2026-04-26 20:47 49.21117 -2.16021 886 ft 121 kts 75°
2026-04-26 20:47 49.21683 -2.15130 1184 ft 126 kts 28°
2026-04-26 20:48 49.22490 -2.15120 1355 ft 141 kts 345°
2026-04-26 20:48 49.22572 -2.15166 1364 ft 142 kts 343°
2026-04-26 20:48 49.23327 -2.15869 1356 ft 157 kts 322°
2026-04-26 20:48 49.23542 -2.16210 1427 ft 156 kts 315°
2026-04-26 20:49 49.23736 -2.16553 1462 ft 157 kts 314°
2026-04-26 20:49 49.24113 -2.18146 1604 ft 163 kts 275°
2026-04-26 20:49 49.24071 -2.19800 1850 ft 154 kts 275°
2026-04-26 20:49 49.24427 -2.21247 2241 ft 141 kts 297°
2026-04-26 20:50 49.24812 -2.22610 2576 ft 138 kts 291°
2026-04-26 20:50 49.25147 -2.24012 2812 ft 143 kts 294°
2026-04-26 20:50 49.25610 -2.25376 3040 ft 145 kts 302°
2026-04-26 20:50 49.26036 -2.26435 3224 ft 147 kts 301°
2026-04-26 20:51 49.26359 -2.27996 3141 ft 165 kts 274°
2026-04-26 20:51 49.26521 -2.29752 3055 ft 173 kts 282°
2026-04-26 20:51 49.26783 -2.31577 2951 ft 179 kts 283°
2026-04-26 20:51 49.27059 -2.33462 2834 ft 183 kts 283°
2026-04-26 20:52 49.27349 -2.35377 2717 ft 185 kts 283°
2026-04-26 20:52 49.27644 -2.37293 2594 ft 186 kts 283°
2026-04-26 20:52 49.27940 -2.39232 2464 ft 188 kts 283°
2026-04-26 20:52 49.28232 -2.41161 2347 ft 189 kts 283°
2026-04-26 20:53 49.28533 -2.43153 2222 ft 190 kts 283°
2026-04-26 20:53 49.28822 -2.45097 2094 ft 190 kts 284°
2026-04-26 20:53 49.29110 -2.47075 1999 ft 189 kts 283°
2026-04-26 20:53 49.29398 -2.49008 1992 ft 185 kts 284°
2026-04-26 20:54 49.29681 -2.50926 1995 ft 183 kts 283°
2026-04-26 20:54 49.29959 -2.52816 1991 ft 182 kts 283°
2026-04-26 20:54 49.30240 -2.54700 1996 ft 181 kts 284°
2026-04-26 20:54 49.30517 -2.56589 2006 ft 182 kts 283°
2026-04-26 20:55 49.30798 -2.58478 2001 ft 181 kts 283°
2026-04-26 20:55 49.31076 -2.60323 2001 ft 181 kts 283°
2026-04-26 20:55 49.31318 -2.61964 1999 ft 182 kts 283°
2026-04-26 20:55 49.31596 -2.63848 2000 ft 181 kts 283°
2026-04-26 20:56 49.31877 -2.65722 1997 ft 181 kts 283°
2026-04-26 20:56 49.32159 -2.67605 1998 ft 181 kts 283°
2026-04-26 20:56 49.32435 -2.69481 1997 ft 181 kts 283°
2026-04-26 20:56 49.32710 -2.71356 1997 ft 180 kts 284°
2026-04-26 20:57 49.32984 -2.73236 1997 ft 180 kts 283°
2026-04-26 20:57 49.33260 -2.75101 1999 ft 180 kts 283°
2026-04-26 20:57 49.33530 -2.76941 2000 ft 180 kts 283°
2026-04-26 20:57 49.33801 -2.78817 1998 ft 180 kts 283°
2026-04-26 20:58 49.34076 -2.80680 2001 ft 179 kts 284°
2026-04-26 20:58 49.34347 -2.82540 1997 ft 178 kts 283°
2026-04-26 20:58 49.34618 -2.84397 2001 ft 178 kts 283°
2026-04-26 20:58 49.34886 -2.86255 2000 ft 179 kts 283°
2026-04-26 20:59 49.35159 -2.88120 2003 ft 180 kts 283°
2026-04-26 20:59 49.35507 -2.89899 2111 ft 166 kts 311°
2026-04-26 20:59 49.36412 -2.90898 2137 ft 167 kts 325°
2026-04-26 20:59 49.37489 -2.91590 2010 ft 172 kts 357°
2026-04-26 21:00 49.38650 -2.91418 2009 ft 169 kts
2026-04-26 21:00 49.39834 -2.91509 2001 ft 169 kts 358°
2026-04-26 21:00 49.40997 -2.91639 1997 ft 168 kts 359°
2026-04-26 21:00 49.42119 -2.91358 1986 ft 164 kts 32°
2026-04-26 21:01 49.42764 -2.90005 1983 ft 161 kts 77°
2026-04-26 21:01 49.42790 -2.88292 2001 ft 161 kts 91°
2026-04-26 21:01 49.42767 -2.86590 2011 ft 162 kts 90°
2026-04-26 21:01 49.42753 -2.84859 2009 ft 162 kts 90°
2026-04-26 21:02 49.42787 -2.83143 2003 ft 161 kts 84°
2026-04-26 21:02 49.42910 -2.81424 2009 ft 162 kts 85°
2026-04-26 21:02 49.42992 -2.79705 2003 ft 161 kts 86°
2026-04-26 21:02 49.43054 -2.77986 2007 ft 162 kts 86°
2026-04-26 21:03 49.43119 -2.76260 2004 ft 162 kts 86°
2026-04-26 21:03 49.43184 -2.74530 2005 ft 163 kts 86°
2026-04-26 21:03 49.43223 -2.72814 1967 ft 164 kts 89°
2026-04-26 21:03 49.43198 -2.71046 1824 ft 168 kts 91°
2026-04-26 21:04 49.43221 -2.69340 1491 ft 145 kts 86°
2026-04-26 21:04 49.43262 -2.67958 1230 ft 124 kts 87°
2026-04-26 21:04 49.43307 -2.66688 1014 ft 117 kts 85°
2026-04-26 21:04 49.43354 -2.65454 780 ft 114 kts 87°
2026-04-26 21:05 49.43374 -2.64402 579 ft 104 kts 88°
2026-04-26 21:05 49.43405 -2.63236 529 ft 109 kts 87°
2026-04-26 21:05 49.43446 -2.62068 423 ft 103 kts 88°
2026-04-26 21:05 49.43475 -2.61007 317 ft 94 kts 88°
2026-04-26 21:06 49.43489 -2.60438 329 ft 5 kts 89°
2026-04-26 21:06 49.43489 -2.60399 330 ft 13 kts 87°
2026-04-26 21:06 49.43499 -2.60128 335 ft 33 kts 87°
2026-04-26 21:06 49.43485 -2.59874 340 ft 11 kts 150°
2026-04-26 21:07 49.43473 -2.59866 341 ft 10 kts 162°
2026-04-26 21:07 49.43345 -2.59895 340 ft 18 kts 258°
2026-04-26 21:07 49.43285 -2.59930 341 ft 15 kts 176°
2026-04-26 21:07 49.43212 -2.59909 337 ft 7 kts 95°
2026-04-26 21:08 49.43220 -2.59884 341 ft 0 kts 47°